sensor_id;sensor_type;location;lat;lon;timestamp;P1;durP1;ratioP1;P2;durP2;ratioP2
6679;SDS011;3376;42.664;23.346;2023-07-16T00:00:13;10.40;;;9.53;;
6679;SDS011;3376;42.664;23.346;2023-07-16T00:02:43;8.70;;;8.20;;
6679;SDS011;3376;42.664;23.346;2023-07-16T00:05:10;9.07;;;8.57;;
6679;SDS011;3376;42.664;23.346;2023-07-16T00:07:37;8.73;;;8.13;;
6679;SDS011;3376;42.664;23.346;2023-07-16T00:10:05;9.17;;;8.43;;
6679;SDS011;3376;42.664;23.346;2023-07-16T00:12:32;9.03;;;8.20;;
6679;SDS011;3376;42.664;23.346;2023-07-16T00:14:59;8.83;;;8.13;;
6679;SDS011;3376;42.664;23.346;2023-07-16T00:17:26;9.23;;;8.40;;
6679;SDS011;3376;42.664;23.346;2023-07-16T00:19:53;8.63;;;8.00;;
6679;SDS011;3376;42.664;23.346;2023-07-16T00:22:19;9.40;;;8.37;;
6679;SDS011;3376;42.664;23.346;2023-07-16T00:24:46;8.77;;;8.27;;
6679;SDS011;3376;42.664;23.346;2023-07-16T00:27:14;8.73;;;8.13;;
6679;SDS011;3376;42.664;23.346;2023-07-16T00:29:41;7.97;;;7.27;;
6679;SDS011;3376;42.664;23.346;2023-07-16T00:32:08;8.80;;;7.80;;
6679;SDS011;3376;42.664;23.346;2023-07-16T00:34:35;8.30;;;7.43;;
6679;SDS011;3376;42.664;23.346;2023-07-16T00:37:01;8.43;;;7.83;;
6679;SDS011;3376;42.664;23.346;2023-07-16T00:39:28;8.70;;;7.40;;
6679;SDS011;3376;42.664;23.346;2023-07-16T00:41:56;7.00;;;6.70;;
6679;SDS011;3376;42.664;23.346;2023-07-16T00:44:24;8.80;;;8.27;;
6679;SDS011;3376;42.664;23.346;2023-07-16T00:46:51;8.40;;;7.10;;
6679;SDS011;3376;42.664;23.346;2023-07-16T00:49:18;7.83;;;7.13;;
6679;SDS011;3376;42.664;23.346;2023-07-16T00:51:44;8.70;;;6.90;;
6679;SDS011;3376;42.664;23.346;2023-07-16T00:54:12;6.83;;;6.37;;
6679;SDS011;3376;42.664;23.346;2023-07-16T00:56:39;7.50;;;6.83;;
6679;SDS011;3376;42.664;23.346;2023-07-16T00:59:06;7.33;;;6.93;;
6679;SDS011;3376;42.664;23.346;2023-07-16T01:01:35;7.67;;;7.17;;
6679;SDS011;3376;42.664;23.346;2023-07-16T01:04:03;6.43;;;6.03;;
6679;SDS011;3376;42.664;23.346;2023-07-16T01:06:31;7.20;;;6.33;;
6679;SDS011;3376;42.664;23.346;2023-07-16T01:09:03;7.07;;;6.67;;
6679;SDS011;3376;42.664;23.346;2023-07-16T01:11:33;6.57;;;6.23;;
6679;SDS011;3376;42.664;23.346;2023-07-16T01:14:01;7.20;;;6.60;;
6679;SDS011;3376;42.664;23.346;2023-07-16T01:16:29;7.03;;;6.30;;
6679;SDS011;3376;42.664;23.346;2023-07-16T01:18:57;7.40;;;6.80;;
6679;SDS011;3376;42.664;23.346;2023-07-16T01:21:24;6.70;;;6.40;;
6679;SDS011;3376;42.664;23.346;2023-07-16T01:24:03;7.13;;;6.63;;
6679;SDS011;3376;42.664;23.346;2023-07-16T01:26:45;8.20;;;6.30;;
6679;SDS011;3376;42.664;23.346;2023-07-16T01:29:28;6.73;;;6.23;;
6679;SDS011;3376;42.664;23.346;2023-07-16T01:31:56;7.17;;;6.57;;
6679;SDS011;3376;42.664;23.346;2023-07-16T01:34:25;6.77;;;6.33;;
6679;SDS011;3376;42.664;23.346;2023-07-16T01:36:55;6.37;;;5.97;;
6679;SDS011;3376;42.664;23.346;2023-07-16T01:39:22;7.17;;;6.67;;
6679;SDS011;3376;42.664;23.346;2023-07-16T01:41:48;6.60;;;6.30;;
6679;SDS011;3376;42.664;23.346;2023-07-16T01:44:15;6.20;;;5.77;;
6679;SDS011;3376;42.664;23.346;2023-07-16T01:46:43;6.50;;;6.00;;
6679;SDS011;3376;42.664;23.346;2023-07-16T01:49:10;6.40;;;5.83;;
6679;SDS011;3376;42.664;23.346;2023-07-16T01:51:38;5.83;;;5.33;;
6679;SDS011;3376;42.664;23.346;2023-07-16T01:54:05;6.20;;;5.60;;
6679;SDS011;3376;42.664;23.346;2023-07-16T01:56:32;5.53;;;5.10;;
6679;SDS011;3376;42.664;23.346;2023-07-16T01:58:59;5.73;;;5.20;;
6679;SDS011;3376;42.664;23.346;2023-07-16T02:01:26;6.17;;;5.77;;
6679;SDS011;3376;42.664;23.346;2023-07-16T02:03:54;5.30;;;5.00;;
6679;SDS011;3376;42.664;23.346;2023-07-16T02:06:21;5.77;;;5.27;;
6679;SDS011;3376;42.664;23.346;2023-07-16T02:08:48;5.60;;;5.20;;
6679;SDS011;3376;42.664;23.346;2023-07-16T02:11:14;6.07;;;5.70;;
6679;SDS011;3376;42.664;23.346;2023-07-16T02:13:41;6.47;;;5.93;;
6679;SDS011;3376;42.664;23.346;2023-07-16T02:16:08;5.67;;;5.43;;
6679;SDS011;3376;42.664;23.346;2023-07-16T02:18:35;6.20;;;5.70;;
6679;SDS011;3376;42.664;23.346;2023-07-16T02:21:03;5.90;;;5.50;;
6679;SDS011;3376;42.664;23.346;2023-07-16T02:23:30;5.90;;;5.40;;
6679;SDS011;3376;42.664;23.346;2023-07-16T02:25:57;6.23;;;5.40;;
6679;SDS011;3376;42.664;23.346;2023-07-16T02:28:24;5.93;;;5.63;;
6679;SDS011;3376;42.664;23.346;2023-07-16T02:30:50;9.73;;;5.83;;
6679;SDS011;3376;42.664;23.346;2023-07-16T02:33:17;5.93;;;5.53;;
6679;SDS011;3376;42.664;23.346;2023-07-16T02:35:45;6.53;;;5.90;;
6679;SDS011;3376;42.664;23.346;2023-07-16T02:38:15;6.33;;;5.73;;
6679;SDS011;3376;42.664;23.346;2023-07-16T02:40:42;6.00;;;5.53;;
6679;SDS011;3376;42.664;23.346;2023-07-16T02:43:10;5.33;;;5.03;;
6679;SDS011;3376;42.664;23.346;2023-07-16T02:45:37;5.43;;;5.10;;
6679;SDS011;3376;42.664;23.346;2023-07-16T02:48:04;5.17;;;4.77;;
6679;SDS011;3376;42.664;23.346;2023-07-16T02:50:33;5.63;;;5.23;;
6679;SDS011;3376;42.664;23.346;2023-07-16T02:53:00;5.77;;;5.27;;
6679;SDS011;3376;42.664;23.346;2023-07-16T02:55:28;5.90;;;5.40;;
6679;SDS011;3376;42.664;23.346;2023-07-16T02:57:55;6.03;;;5.53;;
6679;SDS011;3376;42.664;23.346;2023-07-16T03:00:22;6.13;;;5.83;;
6679;SDS011;3376;42.664;23.346;2023-07-16T03:02:49;5.70;;;5.20;;
6679;SDS011;3376;42.664;23.346;2023-07-16T03:05:16;5.77;;;5.23;;
6679;SDS011;3376;42.664;23.346;2023-07-16T03:07:43;5.63;;;5.23;;
6679;SDS011;3376;42.664;23.346;2023-07-16T03:10:10;5.07;;;4.67;;
6679;SDS011;3376;42.664;23.346;2023-07-16T03:12:38;5.67;;;5.13;;
6679;SDS011;3376;42.664;23.346;2023-07-16T03:15:06;5.17;;;4.70;;
6679;SDS011;3376;42.664;23.346;2023-07-16T03:17:33;5.53;;;5.03;;
6679;SDS011;3376;42.664;23.346;2023-07-16T03:20:00;5.10;;;4.90;;
6679;SDS011;3376;42.664;23.346;2023-07-16T03:22:30;6.90;;;4.93;;
6679;SDS011;3376;42.664;23.346;2023-07-16T03:24:57;5.77;;;4.73;;
6679;SDS011;3376;42.664;23.346;2023-07-16T03:27:24;4.70;;;4.40;;
6679;SDS011;3376;42.664;23.346;2023-07-16T03:29:52;5.30;;;4.80;;
6679;SDS011;3376;42.664;23.346;2023-07-16T03:32:18;4.77;;;4.53;;
6679;SDS011;3376;42.664;23.346;2023-07-16T03:34:45;4.73;;;4.47;;
6679;SDS011;3376;42.664;23.346;2023-07-16T03:37:12;6.13;;;5.57;;
6679;SDS011;3376;42.664;23.346;2023-07-16T03:39:39;5.87;;;5.27;;
6679;SDS011;3376;42.664;23.346;2023-07-16T03:42:05;4.63;;;4.20;;
6679;SDS011;3376;42.664;23.346;2023-07-16T03:44:32;5.17;;;4.87;;
6679;SDS011;3376;42.664;23.346;2023-07-16T03:47:01;5.30;;;4.83;;
6679;SDS011;3376;42.664;23.346;2023-07-16T03:49:28;5.10;;;4.90;;
6679;SDS011;3376;42.664;23.346;2023-07-16T03:51:56;5.03;;;4.83;;
6679;SDS011;3376;42.664;23.346;2023-07-16T03:54:23;5.77;;;5.53;;
6679;SDS011;3376;42.664;23.346;2023-07-16T03:56:50;5.33;;;5.03;;
6679;SDS011;3376;42.664;23.346;2023-07-16T03:59:17;6.10;;;5.60;;
6679;SDS011;3376;42.664;23.346;2023-07-16T04:01:44;6.10;;;5.70;;
6679;SDS011;3376;42.664;23.346;2023-07-16T04:04:12;8.27;;;7.43;;
6679;SDS011;3376;42.664;23.346;2023-07-16T04:06:39;7.23;;;6.47;;
6679;SDS011;3376;42.664;23.346;2023-07-16T04:09:06;6.40;;;6.10;;
6679;SDS011;3376;42.664;23.346;2023-07-16T04:11:33;7.10;;;6.47;;
6679;SDS011;3376;42.664;23.346;2023-07-16T04:14:00;5.17;;;4.93;;
6679;SDS011;3376;42.664;23.346;2023-07-16T04:16:27;5.40;;;5.10;;
6679;SDS011;3376;42.664;23.346;2023-07-16T04:18:53;6.27;;;5.57;;
6679;SDS011;3376;42.664;23.346;2023-07-16T04:21:22;5.53;;;5.13;;
6679;SDS011;3376;42.664;23.346;2023-07-16T04:23:48;5.87;;;5.43;;
6679;SDS011;3376;42.664;23.346;2023-07-16T04:26:15;5.77;;;5.37;;
6679;SDS011;3376;42.664;23.346;2023-07-16T04:28:42;7.27;;;5.70;;
6679;SDS011;3376;42.664;23.346;2023-07-16T04:31:09;5.83;;;5.10;;
6679;SDS011;3376;42.664;23.346;2023-07-16T04:33:35;5.63;;;5.13;;
6679;SDS011;3376;42.664;23.346;2023-07-16T04:36:02;5.67;;;5.37;;
6679;SDS011;3376;42.664;23.346;2023-07-16T04:38:31;6.00;;;5.43;;
6679;SDS011;3376;42.664;23.346;2023-07-16T04:40:58;6.63;;;6.10;;
6679;SDS011;3376;42.664;23.346;2023-07-16T04:43:24;6.83;;;6.43;;
6679;SDS011;3376;42.664;23.346;2023-07-16T04:45:51;6.80;;;6.50;;
6679;SDS011;3376;42.664;23.346;2023-07-16T04:48:18;7.37;;;6.23;;
6679;SDS011;3376;42.664;23.346;2023-07-16T04:50:45;7.07;;;6.20;;
6679;SDS011;3376;42.664;23.346;2023-07-16T04:53:12;6.63;;;6.07;;
6679;SDS011;3376;42.664;23.346;2023-07-16T04:55:40;6.47;;;6.10;;
6679;SDS011;3376;42.664;23.346;2023-07-16T04:58:06;5.60;;;5.32;;
6679;SDS011;3376;42.664;23.346;2023-07-16T05:00:33;9.30;;;6.50;;
6679;SDS011;3376;42.664;23.346;2023-07-16T05:03:00;5.85;;;5.32;;
6679;SDS011;3376;42.664;23.346;2023-07-16T05:05:27;5.93;;;5.63;;
6679;SDS011;3376;42.664;23.346;2023-07-16T05:07:53;6.43;;;6.03;;
6679;SDS011;3376;42.664;23.346;2023-07-16T05:10:20;5.90;;;5.18;;
6679;SDS011;3376;42.664;23.346;2023-07-16T05:12:48;5.55;;;5.15;;
6679;SDS011;3376;42.664;23.346;2023-07-16T05:15:15;5.10;;;4.65;;
6679;SDS011;3376;42.664;23.346;2023-07-16T05:17:42;5.95;;;5.00;;
6679;SDS011;3376;42.664;23.346;2023-07-16T05:20:09;5.45;;;5.03;;
6679;SDS011;3376;42.664;23.346;2023-07-16T05:22:36;6.47;;;5.55;;
6679;SDS011;3376;42.664;23.346;2023-07-16T05:25:03;6.43;;;5.85;;
6679;SDS011;3376;42.664;23.346;2023-07-16T05:27:31;11.05;;;5.30;;
6679;SDS011;3376;42.664;23.346;2023-07-16T05:29:59;6.95;;;6.65;;
6679;SDS011;3376;42.664;23.346;2023-07-16T05:32:26;5.93;;;5.53;;
6679;SDS011;3376;42.664;23.346;2023-07-16T05:34:52;6.20;;;5.60;;
6679;SDS011;3376;42.664;23.346;2023-07-16T05:37:19;6.82;;;6.18;;
6679;SDS011;3376;42.664;23.346;2023-07-16T05:39:46;6.13;;;5.82;;
6679;SDS011;3376;42.664;23.346;2023-07-16T05:42:13;5.90;;;5.50;;
6679;SDS011;3376;42.664;23.346;2023-07-16T05:44:39;7.13;;;6.38;;
6679;SDS011;3376;42.664;23.346;2023-07-16T05:47:08;6.38;;;5.75;;
6679;SDS011;3376;42.664;23.346;2023-07-16T05:49:35;6.75;;;6.45;;
6679;SDS011;3376;42.664;23.346;2023-07-16T05:52:02;7.78;;;7.18;;
6679;SDS011;3376;42.664;23.346;2023-07-16T05:54:29;6.85;;;6.43;;
6679;SDS011;3376;42.664;23.346;2023-07-16T05:56:56;6.60;;;5.90;;
6679;SDS011;3376;42.664;23.346;2023-07-16T05:59:23;7.13;;;6.38;;
6679;SDS011;3376;42.664;23.346;2023-07-16T06:01:50;7.38;;;6.25;;
6679;SDS011;3376;42.664;23.346;2023-07-16T06:04:18;6.30;;;5.78;;
6679;SDS011;3376;42.664;23.346;2023-07-16T06:06:45;5.88;;;5.50;;
6679;SDS011;3376;42.664;23.346;2023-07-16T06:09:12;7.47;;;6.00;;
6679;SDS011;3376;42.664;23.346;2023-07-16T06:11:38;6.45;;;6.15;;
6679;SDS011;3376;42.664;23.346;2023-07-16T06:14:05;6.25;;;6.00;;
6679;SDS011;3376;42.664;23.346;2023-07-16T06:16:32;12.32;;;7.20;;
6679;SDS011;3376;42.664;23.346;2023-07-16T06:18:59;7.68;;;6.97;;
6679;SDS011;3376;42.664;23.346;2023-07-16T06:21:27;6.80;;;6.50;;
6679;SDS011;3376;42.664;23.346;2023-07-16T06:23:54;6.63;;;6.30;;
6679;SDS011;3376;42.664;23.346;2023-07-16T06:26:20;6.57;;;6.28;;
6679;SDS011;3376;42.664;23.346;2023-07-16T06:28:47;6.97;;;6.43;;
6679;SDS011;3376;42.664;23.346;2023-07-16T06:31:15;6.93;;;6.53;;
6679;SDS011;3376;42.664;23.346;2023-07-16T06:33:42;6.68;;;5.88;;
6679;SDS011;3376;42.664;23.346;2023-07-16T06:36:08;5.88;;;5.50;;
6679;SDS011;3376;42.664;23.346;2023-07-16T06:38:37;5.85;;;5.55;;
6679;SDS011;3376;42.664;23.346;2023-07-16T06:41:03;5.82;;;5.43;;
6679;SDS011;3376;42.664;23.346;2023-07-16T06:43:30;7.03;;;6.53;;
6679;SDS011;3376;42.664;23.346;2023-07-16T06:45:57;5.53;;;5.32;;
6679;SDS011;3376;42.664;23.346;2023-07-16T06:48:24;8.70;;;5.93;;
6679;SDS011;3376;42.664;23.346;2023-07-16T06:50:50;5.90;;;5.60;;
6679;SDS011;3376;42.664;23.346;2023-07-16T06:53:17;6.50;;;6.10;;
6679;SDS011;3376;42.664;23.346;2023-07-16T06:55:46;5.93;;;5.65;;
6679;SDS011;3376;42.664;23.346;2023-07-16T06:58:14;8.20;;;5.75;;
6679;SDS011;3376;42.664;23.346;2023-07-16T07:00:41;6.72;;;6.10;;
6679;SDS011;3376;42.664;23.346;2023-07-16T07:03:08;6.57;;;6.03;;
6679;SDS011;3376;42.664;23.346;2023-07-16T07:05:34;6.20;;;5.70;;
6679;SDS011;3376;42.664;23.346;2023-07-16T07:08:02;6.45;;;5.75;;
6679;SDS011;3376;42.664;23.346;2023-07-16T07:10:29;5.63;;;5.18;;
6679;SDS011;3376;42.664;23.346;2023-07-16T07:12:57;5.35;;;5.05;;
6679;SDS011;3376;42.664;23.346;2023-07-16T07:15:23;5.32;;;4.90;;
6679;SDS011;3376;42.664;23.346;2023-07-16T07:17:50;5.35;;;4.85;;
6679;SDS011;3376;42.664;23.346;2023-07-16T07:20:17;5.45;;;5.25;;
6679;SDS011;3376;42.664;23.346;2023-07-16T07:22:44;7.25;;;5.03;;
6679;SDS011;3376;42.664;23.346;2023-07-16T07:25:10;4.72;;;4.50;;
6679;SDS011;3376;42.664;23.346;2023-07-16T07:27:37;6.40;;;5.90;;
6679;SDS011;3376;42.664;23.346;2023-07-16T07:30:06;7.15;;;5.95;;
6679;SDS011;3376;42.664;23.346;2023-07-16T07:32:36;5.70;;;5.30;;
6679;SDS011;3376;42.664;23.346;2023-07-16T07:35:03;5.15;;;4.82;;
6679;SDS011;3376;42.664;23.346;2023-07-16T07:37:31;5.30;;;4.90;;
6679;SDS011;3376;42.664;23.346;2023-07-16T07:39:58;5.18;;;4.78;;
6679;SDS011;3376;42.664;23.346;2023-07-16T07:42:25;4.80;;;4.60;;
6679;SDS011;3376;42.664;23.346;2023-07-16T07:44:53;5.50;;;5.15;;
6679;SDS011;3376;42.664;23.346;2023-07-16T07:47:21;5.53;;;5.13;;
6679;SDS011;3376;42.664;23.346;2023-07-16T07:49:48;6.07;;;5.75;;
6679;SDS011;3376;42.664;23.346;2023-07-16T07:52:14;4.97;;;4.68;;
6679;SDS011;3376;42.664;23.346;2023-07-16T07:54:41;5.68;;;5.18;;
6679;SDS011;3376;42.664;23.346;2023-07-16T07:57:08;10.15;;;5.93;;
6679;SDS011;3376;42.664;23.346;2023-07-16T07:59:35;5.60;;;5.20;;
6679;SDS011;3376;42.664;23.346;2023-07-16T08:02:01;6.38;;;5.85;;
6679;SDS011;3376;42.664;23.346;2023-07-16T08:04:30;5.18;;;4.88;;
6679;SDS011;3376;42.664;23.346;2023-07-16T08:06:57;6.53;;;5.93;;
6679;SDS011;3376;42.664;23.346;2023-07-16T08:09:25;6.75;;;5.43;;
6679;SDS011;3376;42.664;23.346;2023-07-16T08:11:52;6.05;;;5.72;;
6679;SDS011;3376;42.664;23.346;2023-07-16T08:14:18;5.68;;;5.38;;
6679;SDS011;3376;42.664;23.346;2023-07-16T08:16:45;4.95;;;4.75;;
6679;SDS011;3376;42.664;23.346;2023-07-16T08:19:12;5.55;;;5.15;;
6679;SDS011;3376;42.664;23.346;2023-07-16T08:21:40;5.10;;;4.80;;
6679;SDS011;3376;42.664;23.346;2023-07-16T08:24:07;6.32;;;5.60;;
6679;SDS011;3376;42.664;23.346;2023-07-16T08:26:34;6.78;;;6.45;;
6679;SDS011;3376;42.664;23.346;2023-07-16T08:29:00;7.25;;;6.57;;
6679;SDS011;3376;42.664;23.346;2023-07-16T08:31:27;5.88;;;5.68;;
6679;SDS011;3376;42.664;23.346;2023-07-16T08:33:54;7.25;;;6.63;;
6679;SDS011;3376;42.664;23.346;2023-07-16T08:36:21;6.75;;;6.35;;
6679;SDS011;3376;42.664;23.346;2023-07-16T08:38:49;6.68;;;6.05;;
6679;SDS011;3376;42.664;23.346;2023-07-16T08:41:16;6.03;;;5.72;;
6679;SDS011;3376;42.664;23.346;2023-07-16T08:43:44;7.82;;;7.20;;
6679;SDS011;3376;42.664;23.346;2023-07-16T08:46:12;7.43;;;6.72;;
6679;SDS011;3376;42.664;23.346;2023-07-16T08:48:39;7.63;;;6.80;;
6679;SDS011;3376;42.664;23.346;2023-07-16T08:51:06;7.50;;;6.53;;
6679;SDS011;3376;42.664;23.346;2023-07-16T08:53:35;7.07;;;6.50;;
6679;SDS011;3376;42.664;23.346;2023-07-16T08:56:04;6.50;;;6.00;;
6679;SDS011;3376;42.664;23.346;2023-07-16T08:58:31;7.03;;;6.68;;
6679;SDS011;3376;42.664;23.346;2023-07-16T09:00:58;6.63;;;6.13;;
6679;SDS011;3376;42.664;23.346;2023-07-16T09:03:26;6.82;;;6.28;;
6679;SDS011;3376;42.664;23.346;2023-07-16T09:05:53;7.00;;;6.43;;
6679;SDS011;3376;42.664;23.346;2023-07-16T09:08:20;7.95;;;7.22;;
6679;SDS011;3376;42.664;23.346;2023-07-16T09:10:53;7.50;;;7.18;;
6679;SDS011;3376;42.664;23.346;2023-07-16T09:13:21;8.57;;;7.82;;
6679;SDS011;3376;42.664;23.346;2023-07-16T09:15:52;8.45;;;7.68;;
6679;SDS011;3376;42.664;23.346;2023-07-16T09:18:20;8.40;;;7.80;;
6679;SDS011;3376;42.664;23.346;2023-07-16T09:20:47;8.07;;;7.43;;
6679;SDS011;3376;42.664;23.346;2023-07-16T09:23:16;8.07;;;7.57;;
6679;SDS011;3376;42.664;23.346;2023-07-16T09:25:43;8.00;;;7.40;;
6679;SDS011;3376;42.664;23.346;2023-07-16T09:28:10;7.88;;;7.47;;
6679;SDS011;3376;42.664;23.346;2023-07-16T09:30:38;8.18;;;7.57;;
6679;SDS011;3376;42.664;23.346;2023-07-16T09:33:12;8.95;;;8.23;;
6679;SDS011;3376;42.664;23.346;2023-07-16T09:35:40;8.10;;;7.22;;
6679;SDS011;3376;42.664;23.346;2023-07-16T09:38:07;7.93;;;7.35;;
6679;SDS011;3376;42.664;23.346;2023-07-16T09:40:35;8.13;;;7.55;;
6679;SDS011;3376;42.664;23.346;2023-07-16T09:43:03;9.10;;;8.20;;
6679;SDS011;3376;42.664;23.346;2023-07-16T09:45:32;13.85;;;11.13;;
6679;SDS011;3376;42.664;23.346;2023-07-16T09:48:00;9.02;;;8.20;;
6679;SDS011;3376;42.664;23.346;2023-07-16T09:50:28;8.38;;;7.70;;
6679;SDS011;3376;42.664;23.346;2023-07-16T09:52:56;8.20;;;7.63;;
6679;SDS011;3376;42.664;23.346;2023-07-16T09:55:23;10.07;;;9.30;;
6679;SDS011;3376;42.664;23.346;2023-07-16T09:57:52;8.88;;;8.27;;
6679;SDS011;3376;42.664;23.346;2023-07-16T10:00:21;8.88;;;7.97;;
6679;SDS011;3376;42.664;23.346;2023-07-16T10:02:49;8.02;;;7.50;;
6679;SDS011;3376;42.664;23.346;2023-07-16T10:05:23;8.43;;;7.18;;
6679;SDS011;3376;42.664;23.346;2023-07-16T10:07:51;7.70;;;7.10;;
6679;SDS011;3376;42.664;23.346;2023-07-16T10:10:19;7.88;;;7.38;;
6679;SDS011;3376;42.664;23.346;2023-07-16T10:12:54;8.40;;;7.88;;
6679;SDS011;3376;42.664;23.346;2023-07-16T10:15:24;8.40;;;7.72;;
6679;SDS011;3376;42.664;23.346;2023-07-16T10:17:52;8.57;;;7.93;;
6679;SDS011;3376;42.664;23.346;2023-07-16T10:20:29;8.95;;;8.38;;
6679;SDS011;3376;42.664;23.346;2023-07-16T10:22:57;8.65;;;7.50;;
6679;SDS011;3376;42.664;23.346;2023-07-16T10:25:25;8.70;;;7.32;;
6679;SDS011;3376;42.664;23.346;2023-07-16T10:27:54;8.60;;;7.80;;
6679;SDS011;3376;42.664;23.346;2023-07-16T10:30:21;8.48;;;7.90;;
6679;SDS011;3376;42.664;23.346;2023-07-16T10:32:50;8.85;;;8.05;;
6679;SDS011;3376;42.664;23.346;2023-07-16T10:35:18;8.50;;;8.10;;
6679;SDS011;3376;42.664;23.346;2023-07-16T10:37:46;8.68;;;8.05;;
6679;SDS011;3376;42.664;23.346;2023-07-16T10:40:13;8.15;;;7.65;;
6679;SDS011;3376;42.664;23.346;2023-07-16T10:42:41;8.57;;;7.82;;
6679;SDS011;3376;42.664;23.346;2023-07-16T10:45:09;8.43;;;7.95;;
6679;SDS011;3376;42.664;23.346;2023-07-16T10:47:37;8.60;;;8.10;;
6679;SDS011;3376;42.664;23.346;2023-07-16T10:50:05;9.20;;;8.50;;
6679;SDS011;3376;42.664;23.346;2023-07-16T10:52:33;10.77;;;9.15;;
6679;SDS011;3376;42.664;23.346;2023-07-16T10:55:01;9.68;;;8.75;;
6679;SDS011;3376;42.664;23.346;2023-07-16T10:57:28;9.05;;;8.40;;
6679;SDS011;3376;42.664;23.346;2023-07-16T10:59:56;9.20;;;8.70;;
6679;SDS011;3376;42.664;23.346;2023-07-16T11:02:24;10.18;;;8.93;;
6679;SDS011;3376;42.664;23.346;2023-07-16T11:04:51;10.13;;;8.57;;
6679;SDS011;3376;42.664;23.346;2023-07-16T11:07:19;8.68;;;8.07;;
6679;SDS011;3376;42.664;23.346;2023-07-16T11:09:48;9.88;;;9.05;;
6679;SDS011;3376;42.664;23.346;2023-07-16T11:12:17;8.80;;;8.10;;
6679;SDS011;3376;42.664;23.346;2023-07-16T11:14:45;9.20;;;8.50;;
6679;SDS011;3376;42.664;23.346;2023-07-16T11:17:14;11.85;;;8.50;;
6679;SDS011;3376;42.664;23.346;2023-07-16T11:19:44;8.77;;;8.07;;
6679;SDS011;3376;42.664;23.346;2023-07-16T11:22:12;8.73;;;8.13;;
6679;SDS011;3376;42.664;23.346;2023-07-16T11:24:40;8.88;;;8.00;;
6679;SDS011;3376;42.664;23.346;2023-07-16T11:27:14;8.18;;;7.68;;
6679;SDS011;3376;42.664;23.346;2023-07-16T11:29:47;10.88;;;7.75;;
6679;SDS011;3376;42.664;23.346;2023-07-16T11:32:25;10.27;;;8.50;;
6679;SDS011;3376;42.664;23.346;2023-07-16T11:34:53;8.85;;;8.32;;
6679;SDS011;3376;42.664;23.346;2023-07-16T11:37:20;8.95;;;8.43;;
6679;SDS011;3376;42.664;23.346;2023-07-16T11:39:47;13.48;;;9.18;;
6679;SDS011;3376;42.664;23.346;2023-07-16T11:42:14;9.52;;;8.93;;
6679;SDS011;3376;42.664;23.346;2023-07-16T11:44:50;9.10;;;8.57;;
6679;SDS011;3376;42.664;23.346;2023-07-16T11:47:17;9.30;;;8.38;;
6679;SDS011;3376;42.664;23.346;2023-07-16T11:49:44;8.55;;;7.75;;
6679;SDS011;3376;42.664;23.346;2023-07-16T11:52:10;8.82;;;8.10;;
6679;SDS011;3376;42.664;23.346;2023-07-16T11:54:37;8.63;;;8.10;;
6679;SDS011;3376;42.664;23.346;2023-07-16T11:57:04;8.40;;;7.90;;
6679;SDS011;3376;42.664;23.346;2023-07-16T11:59:31;8.65;;;8.05;;
6679;SDS011;3376;42.664;23.346;2023-07-16T12:01:59;9.00;;;8.60;;
6679;SDS011;3376;42.664;23.346;2023-07-16T12:04:26;8.75;;;7.85;;
6679;SDS011;3376;42.664;23.346;2023-07-16T12:06:53;9.13;;;8.45;;
6679;SDS011;3376;42.664;23.346;2023-07-16T12:09:20;8.35;;;7.72;;
6679;SDS011;3376;42.664;23.346;2023-07-16T12:11:47;10.32;;;8.27;;
6679;SDS011;3376;42.664;23.346;2023-07-16T12:14:13;8.77;;;8.48;;
6679;SDS011;3376;42.664;23.346;2023-07-16T12:16:40;7.45;;;7.05;;
6679;SDS011;3376;42.664;23.346;2023-07-16T12:19:09;8.55;;;7.95;;
6679;SDS011;3376;42.664;23.346;2023-07-16T12:21:36;8.45;;;7.75;;
6679;SDS011;3376;42.664;23.346;2023-07-16T12:24:03;8.85;;;8.18;;
6679;SDS011;3376;42.664;23.346;2023-07-16T12:26:31;8.00;;;7.65;;
6679;SDS011;3376;42.664;23.346;2023-07-16T12:28:57;8.73;;;7.95;;
6679;SDS011;3376;42.664;23.346;2023-07-16T12:31:24;8.77;;;8.18;;
6679;SDS011;3376;42.664;23.346;2023-07-16T12:33:51;8.48;;;8.00;;
6679;SDS011;3376;42.664;23.346;2023-07-16T12:36:19;9.70;;;8.23;;
6679;SDS011;3376;42.664;23.346;2023-07-16T12:38:46;9.32;;;8.43;;
6679;SDS011;3376;42.664;23.346;2023-07-16T12:41:13;9.23;;;8.82;;
6679;SDS011;3376;42.664;23.346;2023-07-16T12:43:41;9.02;;;8.30;;
6679;SDS011;3376;42.664;23.346;2023-07-16T12:46:08;7.93;;;7.43;;
6679;SDS011;3376;42.664;23.346;2023-07-16T12:48:35;10.52;;;9.80;;
6679;SDS011;3376;42.664;23.346;2023-07-16T12:51:03;10.25;;;9.65;;
6679;SDS011;3376;42.664;23.346;2023-07-16T12:53:32;8.77;;;8.38;;
6679;SDS011;3376;42.664;23.346;2023-07-16T12:55:59;8.70;;;7.97;;
6679;SDS011;3376;42.664;23.346;2023-07-16T12:58:26;8.45;;;7.80;;
6679;SDS011;3376;42.664;23.346;2023-07-16T13:00:53;8.60;;;8.00;;
6679;SDS011;3376;42.664;23.346;2023-07-16T13:03:19;7.95;;;7.55;;
6679;SDS011;3376;42.664;23.346;2023-07-16T13:05:47;7.78;;;7.40;;
6679;SDS011;3376;42.664;23.346;2023-07-16T13:08:14;7.82;;;7.38;;
6679;SDS011;3376;42.664;23.346;2023-07-16T13:10:43;9.13;;;8.65;;
6679;SDS011;3376;42.664;23.346;2023-07-16T13:13:09;7.60;;;7.30;;
6679;SDS011;3376;42.664;23.346;2023-07-16T13:15:36;8.48;;;8.05;;
6679;SDS011;3376;42.664;23.346;2023-07-16T13:18:03;8.07;;;6.95;;
6679;SDS011;3376;42.664;23.346;2023-07-16T13:20:29;8.73;;;8.20;;
6679;SDS011;3376;42.664;23.346;2023-07-16T13:22:56;9.02;;;8.40;;
6679;SDS011;3376;42.664;23.346;2023-07-16T13:25:23;8.88;;;8.18;;
6679;SDS011;3376;42.664;23.346;2023-07-16T13:27:51;9.43;;;8.70;;
6679;SDS011;3376;42.664;23.346;2023-07-16T13:30:19;8.55;;;7.97;;
6679;SDS011;3376;42.664;23.346;2023-07-16T13:32:49;8.85;;;8.35;;
6679;SDS011;3376;42.664;23.346;2023-07-16T13:35:16;9.02;;;8.18;;
6679;SDS011;3376;42.664;23.346;2023-07-16T13:37:43;9.25;;;8.85;;
6679;SDS011;3376;42.664;23.346;2023-07-16T13:40:11;9.40;;;8.48;;
6679;SDS011;3376;42.664;23.346;2023-07-16T13:42:38;8.38;;;7.72;;
6679;SDS011;3376;42.664;23.346;2023-07-16T13:45:07;8.05;;;7.65;;
6679;SDS011;3376;42.664;23.346;2023-07-16T13:47:34;8.50;;;7.63;;
6679;SDS011;3376;42.664;23.346;2023-07-16T13:50:01;7.50;;;7.10;;
6679;SDS011;3376;42.664;23.346;2023-07-16T13:52:29;8.93;;;8.07;;
6679;SDS011;3376;42.664;23.346;2023-07-16T13:54:56;8.00;;;7.43;;
6679;SDS011;3376;42.664;23.346;2023-07-16T13:57:23;8.80;;;8.10;;
6679;SDS011;3376;42.664;23.346;2023-07-16T13:59:50;8.63;;;8.00;;
6679;SDS011;3376;42.664;23.346;2023-07-16T14:02:18;8.40;;;7.80;;
6679;SDS011;3376;42.664;23.346;2023-07-16T14:04:45;8.02;;;7.55;;
6679;SDS011;3376;42.664;23.346;2023-07-16T14:07:12;7.82;;;7.28;;
6679;SDS011;3376;42.664;23.346;2023-07-16T14:09:39;8.73;;;7.97;;
6679;SDS011;3376;42.664;23.346;2023-07-16T14:12:06;11.02;;;7.60;;
6679;SDS011;3376;42.664;23.346;2023-07-16T14:14:33;8.65;;;7.88;;
6679;SDS011;3376;42.664;23.346;2023-07-16T14:17:00;11.05;;;8.30;;
6679;SDS011;3376;42.664;23.346;2023-07-16T14:19:29;9.63;;;8.85;;
6679;SDS011;3376;42.664;23.346;2023-07-16T14:21:58;8.25;;;7.72;;
6679;SDS011;3376;42.664;23.346;2023-07-16T14:24:24;8.65;;;8.07;;
6679;SDS011;3376;42.664;23.346;2023-07-16T14:26:51;8.48;;;7.68;;
6679;SDS011;3376;42.664;23.346;2023-07-16T14:29:18;11.25;;;10.27;;
6679;SDS011;3376;42.664;23.346;2023-07-16T14:31:45;9.07;;;8.23;;
6679;SDS011;3376;42.664;23.346;2023-07-16T14:34:11;8.15;;;7.65;;
6679;SDS011;3376;42.664;23.346;2023-07-16T14:36:41;8.13;;;7.63;;
6679;SDS011;3376;42.664;23.346;2023-07-16T14:39:08;8.30;;;7.70;;
6679;SDS011;3376;42.664;23.346;2023-07-16T14:41:34;8.27;;;7.65;;
6679;SDS011;3376;42.664;23.346;2023-07-16T14:44:03;8.88;;;8.20;;
6679;SDS011;3376;42.664;23.346;2023-07-16T14:46:30;9.27;;;8.32;;
6679;SDS011;3376;42.664;23.346;2023-07-16T14:48:57;7.68;;;7.28;;
6679;SDS011;3376;42.664;23.346;2023-07-16T14:51:24;8.75;;;7.80;;
6679;SDS011;3376;42.664;23.346;2023-07-16T14:53:52;8.05;;;7.55;;
6679;SDS011;3376;42.664;23.346;2023-07-16T14:56:19;8.38;;;7.53;;
6679;SDS011;3376;42.664;23.346;2023-07-16T14:58:46;8.38;;;7.55;;
6679;SDS011;3376;42.664;23.346;2023-07-16T15:01:13;7.78;;;7.38;;